createdAt,value
2017-05-21T00:00:40.185Z,0
2017-05-21T00:01:50.454Z,0
2017-05-21T00:03:00.718Z,0
2017-05-21T00:04:10.669Z,0
2017-05-21T00:05:20.936Z,0
2017-05-21T00:06:30.573Z,0
2017-05-21T00:07:40.212Z,0
2017-05-21T00:08:50.169Z,0
2017-05-21T00:09:59.810Z,0
2017-05-21T00:11:09.788Z,0
2017-05-21T00:12:19.423Z,0
2017-05-21T00:13:29.370Z,0
2017-05-21T00:14:39.361Z,0
2017-05-21T00:15:49.315Z,0
2017-05-21T00:16:58.950Z,0
2017-05-21T00:18:08.913Z,0
2017-05-21T00:19:19.189Z,0
2017-05-21T00:20:28.517Z,0
2017-05-21T00:21:38.161Z,0
2017-05-21T00:22:48.113Z,0
2017-05-21T00:23:58.391Z,0
2017-05-21T00:25:08.033Z,0
2017-05-21T00:26:18.299Z,0
2017-05-21T00:27:28.563Z,0
2017-05-21T00:28:38.888Z,0
2017-05-21T00:29:49.169Z,0
2017-05-21T00:30:59.124Z,0
2017-05-21T00:32:08.764Z,0
2017-05-21T00:33:18.401Z,0
2017-05-21T00:34:28.670Z,0
2017-05-21T00:35:38.941Z,0
2017-05-21T00:36:48.898Z,0
2017-05-21T00:37:58.856Z,0
2017-05-21T00:39:08.493Z,0
2017-05-21T00:40:18.441Z,0
2017-05-21T00:41:28.715Z,0
2017-05-21T00:42:38.668Z,0
2017-05-21T00:43:48.628Z,0
2017-05-21T00:44:58.894Z,0
2017-05-21T00:46:08.852Z,0
2017-05-21T00:47:18.803Z,0
2017-05-21T00:48:28.763Z,0
2017-05-21T00:49:38.719Z,0
2017-05-21T00:50:48.358Z,0
2017-05-21T00:51:58.400Z,0
2017-05-21T00:53:08.351Z,0
2017-05-21T00:54:18.305Z,0
2017-05-21T00:55:28.316Z,0
2017-05-21T00:56:37.956Z,0
2017-05-21T00:57:47.909Z,0
2017-05-21T00:58:57.867Z,0
2017-05-21T01:00:07.820Z,0
2017-05-21T01:01:17.455Z,0
2017-05-21T01:02:26.778Z,0
2017-05-21T01:03:36.728Z,0
2017-05-21T01:04:47.001Z,0
2017-05-21T01:05:57.269Z,0
2017-05-21T01:07:06.901Z,0
2017-05-21T01:08:17.196Z,0
2017-05-21T01:09:27.470Z,0
2017-05-21T01:10:37.738Z,0
2017-05-21T01:11:48.013Z,0
2017-05-21T01:12:58.284Z,0
2017-05-21T01:14:08.607Z,0
2017-05-21T01:15:18.242Z,0
2017-05-21T01:16:27.876Z,0
2017-05-21T01:17:37.201Z,0
2017-05-21T01:18:46.536Z,0
2017-05-21T01:19:56.492Z,0
2017-05-21T01:21:06.759Z,0
2017-05-21T01:22:16.710Z,0
2017-05-21T01:23:26.674Z,0
2017-05-21T01:24:36.958Z,0
2017-05-21T01:25:47.224Z,0
2017-05-21T01:26:57.491Z,0
2017-05-21T01:28:07.753Z,0
2017-05-21T01:29:17.394Z,0
2017-05-21T01:30:27.659Z,0
2017-05-21T01:31:37.613Z,0
2017-05-21T01:32:47.898Z,0
2017-05-21T01:33:58.170Z,0
2017-05-21T01:35:07.808Z,0
2017-05-21T01:36:17.443Z,0
2017-05-21T01:37:27.394Z,0
2017-05-21T01:38:37.041Z,0
2017-05-21T01:39:47.311Z,0
2017-05-21T01:40:57.581Z,0
2017-05-21T01:42:07.848Z,0
2017-05-21T01:43:17.484Z,0
2017-05-21T01:44:27.446Z,0
2017-05-21T01:45:37.092Z,0
2017-05-21T01:46:46.731Z,0
2017-05-21T01:47:56.704Z,0
2017-05-21T01:49:06.723Z,0
2017-05-21T01:50:16.048Z,0
2017-05-21T01:51:26.045Z,0
2017-05-21T01:52:35.999Z,0
2017-05-21T01:53:45.654Z,0
2017-05-21T01:54:55.919Z,0
2017-05-21T01:56:05.950Z,0
2017-05-21T01:57:15.322Z,0
2017-05-21T01:58:24.958Z,0
2017-05-21T01:59:34.915Z,0
2017-05-21T02:00:44.865Z,0
2017-05-21T02:01:54.496Z,0
2017-05-21T02:03:04.768Z,0
2017-05-21T02:04:13.833Z,0
2017-05-21T02:05:23.779Z,0
2017-05-21T02:06:33.420Z,0
2017-05-21T02:07:43.065Z,0
2017-05-21T02:08:53.325Z,0
2017-05-21T02:10:03.285Z,0
2017-05-21T02:11:13.560Z,0
2017-05-21T02:12:23.829Z,0
2017-05-21T02:13:33.784Z,0
2017-05-21T02:14:43.422Z,0
2017-05-21T02:15:53.743Z,0
2017-05-21T02:17:04.014Z,0
2017-05-21T02:18:13.656Z,0
2017-05-21T02:19:23.928Z,0
2017-05-21T02:20:33.889Z,0
2017-05-21T02:21:43.842Z,0
2017-05-21T02:22:53.798Z,0
2017-05-21T02:24:04.066Z,0
2017-05-21T02:25:13.385Z,0
2017-05-21T02:26:23.019Z,0
2017-05-21T02:27:32.661Z,0
2017-05-21T02:28:41.674Z,0
2017-05-21T02:29:51.631Z,0
2017-05-21T02:31:01.590Z,0
2017-05-21T02:32:11.532Z,0
2017-05-21T02:33:21.484Z,0
2017-05-21T02:34:31.439Z,0
2017-05-21T02:35:40.760Z,0
2017-05-21T02:36:50.710Z,0
2017-05-21T02:38:00.978Z,0
2017-05-21T02:39:10.958Z,0
2017-05-21T02:40:21.241Z,0
2017-05-21T02:41:30.879Z,0
2017-05-21T02:42:40.824Z,0
2017-05-21T02:43:50.779Z,0
2017-05-21T02:45:00.736Z,0
2017-05-21T02:46:11.000Z,0
2017-05-21T02:47:21.275Z,0
2017-05-21T02:48:31.231Z,0
2017-05-21T02:49:40.868Z,0
2017-05-21T02:50:50.823Z,0
2017-05-21T02:52:00.774Z,0
2017-05-21T02:53:11.042Z,0
2017-05-21T02:54:20.059Z,0
2017-05-21T02:55:30.007Z,0
2017-05-21T02:56:40.271Z,0
2017-05-21T02:57:49.598Z,0
2017-05-21T02:58:59.879Z,0
2017-05-21T03:00:09.839Z,0
2017-05-21T03:01:19.786Z,0
2017-05-21T03:02:29.115Z,0
2017-05-21T03:03:39.071Z,0
2017-05-21T03:04:48.723Z,0
2017-05-21T03:05:58.989Z,0
2017-05-21T03:07:08.952Z,0
2017-05-21T03:08:17.957Z,0
2017-05-21T03:09:27.912Z,0
2017-05-21T03:10:37.865Z,0
2017-05-21T03:11:47.823Z,0
2017-05-21T03:12:57.778Z,0
2017-05-21T03:14:07.413Z,0
2017-05-21T03:15:17.362Z,0
2017-05-21T03:16:27.007Z,0
2017-05-21T03:17:37.313Z,0
2017-05-21T03:18:47.281Z,0
2017-05-21T03:19:57.552Z,0
2017-05-21T03:21:07.498Z,0
2017-05-21T03:22:17.129Z,0
2017-05-21T03:23:26.454Z,0
2017-05-21T03:24:36.750Z,0
2017-05-21T03:25:46.710Z,0
2017-05-21T03:26:56.347Z,0
2017-05-21T03:28:06.625Z,0
2017-05-21T03:29:15.947Z,0
2017-05-21T03:30:26.256Z,0
2017-05-21T03:31:36.220Z,4
2017-05-21T03:32:45.867Z,4
2017-05-21T03:33:55.829Z,4
2017-05-21T03:35:05.474Z,4
2017-05-21T03:36:15.427Z,4
2017-05-21T03:37:24.762Z,4
2017-05-21T03:38:34.395Z,0
2017-05-21T03:39:43.717Z,0
2017-05-21T03:40:53.985Z,0
2017-05-21T03:42:04.262Z,0
2017-05-21T03:43:13.901Z,0
2017-05-21T03:44:23.225Z,0
2017-05-21T03:45:32.866Z,0
2017-05-21T03:46:42.505Z,0
2017-05-21T03:47:52.776Z,0
2017-05-21T03:49:03.051Z,0
2017-05-21T03:50:13.003Z,0
2017-05-21T03:51:23.272Z,0
2017-05-21T03:52:33.224Z,4
2017-05-21T03:53:42.551Z,4
2017-05-21T03:54:52.514Z,4
2017-05-21T03:56:02.159Z,4
2017-05-21T03:57:12.117Z,4
2017-05-21T03:58:21.758Z,4
2017-05-21T03:59:31.715Z,4
2017-05-21T04:00:41.679Z,4
2017-05-21T04:01:51.381Z,4
2017-05-21T04:03:01.661Z,4
2017-05-21T04:04:11.305Z,4
2017-05-21T04:05:20.622Z,0
2017-05-21T04:06:30.265Z,0
2017-05-21T04:07:39.907Z,0
2017-05-21T04:08:49.862Z,0
2017-05-21T04:10:00.140Z,0
2017-05-21T04:11:09.782Z,0
2017-05-21T04:12:19.106Z,4
2017-05-21T04:13:29.059Z,4
2017-05-21T04:14:38.708Z,4
2017-05-21T04:15:48.978Z,4
2017-05-21T04:16:58.614Z,4
2017-05-21T04:18:08.563Z,4
2017-05-21T04:19:18.209Z,4
2017-05-21T04:20:28.175Z,4
2017-05-21T04:21:38.131Z,4
2017-05-21T04:22:48.407Z,4
2017-05-21T04:23:58.366Z,4
2017-05-21T04:25:08.321Z,4
2017-05-21T04:26:18.274Z,4
2017-05-21T04:27:28.228Z,4
2017-05-21T04:28:37.554Z,4
2017-05-21T04:29:47.578Z,4
2017-05-21T04:30:57.221Z,4
2017-05-21T04:32:06.857Z,4
2017-05-21T04:33:16.807Z,8
2017-05-21T04:34:26.454Z,8
2017-05-21T04:35:36.721Z,4
2017-05-21T04:36:45.779Z,4
2017-05-21T04:37:55.419Z,4
2017-05-21T04:39:05.702Z,4
2017-05-21T04:40:14.709Z,4
2017-05-21T04:41:24.678Z,4
2017-05-21T04:42:34.635Z,4
2017-05-21T04:43:44.585Z,4
2017-05-21T04:44:54.544Z,4
2017-05-21T04:46:04.814Z,4
2017-05-21T04:47:14.454Z,4
2017-05-21T04:48:24.407Z,4
2017-05-21T04:49:34.365Z,4
2017-05-21T04:50:44.007Z,8
2017-05-21T04:51:53.960Z,8
2017-05-21T04:53:03.918Z,8
2017-05-21T04:54:13.876Z,8
2017-05-21T04:55:23.200Z,8
2017-05-21T04:56:33.148Z,4
2017-05-21T04:57:43.163Z,4
2017-05-21T04:58:53.117Z,4
2017-05-21T05:00:03.388Z,4
2017-05-21T05:01:13.650Z,4
2017-05-21T05:02:23.600Z,4
2017-05-21T05:03:33.862Z,4
2017-05-21T05:04:43.504Z,4
2017-05-21T05:05:53.776Z,4
2017-05-21T05:07:04.117Z,4
2017-05-21T05:08:14.068Z,8
2017-05-21T05:09:23.705Z,8
2017-05-21T05:10:33.974Z,8
2017-05-21T05:11:43.924Z,8
2017-05-21T05:12:53.880Z,8
2017-05-21T05:14:03.833Z,8
2017-05-21T05:15:14.101Z,8
2017-05-21T05:16:23.734Z,8
2017-05-21T05:17:33.694Z,4
2017-05-21T05:18:43.645Z,8
2017-05-21T05:19:53.593Z,4
2017-05-21T05:21:03.859Z,4
2017-05-21T05:22:14.148Z,8
2017-05-21T05:23:24.421Z,8
2017-05-21T05:24:34.373Z,8
2017-05-21T05:25:44.323Z,8
2017-05-21T05:26:53.964Z,8
2017-05-21T05:28:04.238Z,8
2017-05-21T05:29:14.188Z,8
2017-05-21T05:30:23.508Z,8
2017-05-21T05:31:32.827Z,8
2017-05-21T05:32:43.091Z,8
2017-05-21T05:33:53.358Z,8
2017-05-21T05:35:02.996Z,8
2017-05-21T05:36:13.265Z,8
2017-05-21T05:37:22.917Z,8
2017-05-21T05:38:32.868Z,8
2017-05-21T05:39:42.505Z,8
2017-05-21T05:40:52.450Z,12
2017-05-21T05:42:02.405Z,12
2017-05-21T05:43:12.044Z,12
2017-05-21T05:44:22.323Z,12
2017-05-21T05:45:31.963Z,8
2017-05-21T05:46:41.613Z,8
2017-05-21T05:47:51.887Z,8
2017-05-21T05:49:02.158Z,8
2017-05-21T05:50:12.423Z,8
2017-05-21T05:51:22.386Z,8
2017-05-21T05:52:32.021Z,8
2017-05-21T05:53:41.661Z,8
2017-05-21T05:54:51.620Z,8
2017-05-21T05:56:01.938Z,8
2017-05-21T05:57:11.889Z,8
2017-05-21T05:58:21.212Z,8
2017-05-21T05:59:31.165Z,12
2017-05-21T06:00:41.133Z,12
2017-05-21T06:01:50.778Z,12
2017-05-21T06:03:00.112Z,12
2017-05-21T06:04:10.380Z,8
2017-05-21T06:05:20.025Z,8
2017-05-21T06:06:29.667Z,8
2017-05-21T06:07:39.945Z,8
2017-05-21T06:08:49.896Z,8
2017-05-21T06:10:00.165Z,8
2017-05-21T06:11:09.807Z,12
2017-05-21T06:12:19.757Z,16
2017-05-21T06:13:30.099Z,24
2017-05-21T06:14:39.752Z,28
2017-05-21T06:15:49.704Z,32
2017-05-21T06:16:59.649Z,44
2017-05-21T06:18:09.912Z,56
2017-05-21T06:19:19.556Z,64
2017-05-21T06:20:29.511Z,76
2017-05-21T06:21:39.474Z,84
2017-05-21T06:22:49.425Z,92
2017-05-21T06:23:59.394Z,100
2017-05-21T06:25:09.032Z,104
2017-05-21T06:26:18.990Z,112
2017-05-21T06:27:29.252Z,116
2017-05-21T06:28:39.529Z,120
2017-05-21T06:29:49.168Z,116
2017-05-21T06:30:59.433Z,116
2017-05-21T06:32:09.073Z,124
2017-05-21T06:33:19.338Z,120
2017-05-21T06:34:29.617Z,120
2017-05-21T06:35:39.887Z,120
2017-05-21T06:36:49.519Z,120
2017-05-21T06:37:59.463Z,120
2017-05-21T06:39:09.421Z,120
2017-05-21T06:40:19.682Z,124
2017-05-21T06:41:29.634Z,124
2017-05-21T06:42:39.619Z,124
2017-05-21T06:43:49.275Z,124
2017-05-21T06:44:58.920Z,120
2017-05-21T06:46:09.191Z,120
2017-05-21T06:47:18.833Z,120
2017-05-21T06:48:28.473Z,120
2017-05-21T06:49:38.734Z,116
2017-05-21T06:50:48.377Z,116
2017-05-21T06:51:58.642Z,116
2017-05-21T06:53:08.596Z,116
2017-05-21T06:54:18.867Z,116
2017-05-21T06:55:28.816Z,116
2017-05-21T06:56:39.083Z,116
2017-05-21T06:57:49.355Z,112
2017-05-21T06:58:59.007Z,112
2017-05-21T07:00:08.958Z,112
2017-05-21T07:01:18.909Z,112
2017-05-21T07:02:28.233Z,88
2017-05-21T07:03:37.555Z,104
2017-05-21T07:04:47.515Z,104
2017-05-21T07:05:57.154Z,104
2017-05-21T07:07:07.105Z,112
2017-05-21T07:08:16.741Z,108
2017-05-21T07:09:27.014Z,100
2017-05-21T07:10:36.341Z,104
2017-05-21T07:11:45.990Z,84
2017-05-21T07:12:55.947Z,112
2017-05-21T07:14:05.901Z,116
2017-05-21T07:15:15.535Z,100
2017-05-21T07:16:25.170Z,100
2017-05-21T07:17:35.121Z,100
2017-05-21T07:18:45.387Z,100
2017-05-21T07:19:55.029Z,100
2017-05-21T07:21:04.981Z,104
2017-05-21T07:22:15.246Z,100
2017-05-21T07:23:24.878Z,100
2017-05-21T07:24:34.831Z,100
2017-05-21T07:25:44.780Z,104
2017-05-21T07:26:54.108Z,116
2017-05-21T07:28:04.371Z,124
2017-05-21T07:29:13.701Z,132
2017-05-21T07:30:23.968Z,104
2017-05-21T07:31:33.292Z,128
2017-05-21T07:32:43.249Z,128
2017-05-21T07:33:53.204Z,132
2017-05-21T07:35:03.160Z,128
2017-05-21T07:36:13.115Z,128
2017-05-21T07:37:23.382Z,124
2017-05-21T07:38:33.338Z,124
2017-05-21T07:39:43.289Z,116
2017-05-21T07:40:52.939Z,96
2017-05-21T07:42:02.570Z,100
2017-05-21T07:43:12.522Z,96
2017-05-21T07:44:22.159Z,120
2017-05-21T07:45:32.429Z,92
2017-05-21T07:46:42.383Z,92
2017-05-21T07:47:52.337Z,88
2017-05-21T07:49:01.346Z,88
2017-05-21T07:50:10.982Z,88
2017-05-21T07:51:20.302Z,88
2017-05-21T07:52:30.569Z,84
2017-05-21T07:53:40.824Z,84
2017-05-21T07:54:50.781Z,80
2017-05-21T07:55:59.787Z,80
2017-05-21T07:57:09.739Z,76
2017-05-21T07:58:19.694Z,76
2017-05-21T07:59:29.964Z,80
2017-05-21T08:00:39.919Z,76
2017-05-21T08:01:49.931Z,72
2017-05-21T08:02:59.887Z,80
2017-05-21T08:04:09.843Z,76
2017-05-21T08:05:19.795Z,76
2017-05-21T08:06:29.744Z,76
2017-05-21T08:07:39.379Z,72
2017-05-21T08:08:49.709Z,72
2017-05-21T08:09:59.344Z,72
2017-05-21T08:11:09.294Z,68
2017-05-21T08:12:19.571Z,68
2017-05-21T08:13:29.213Z,68
2017-05-21T08:14:39.175Z,64
2017-05-21T08:15:49.442Z,68
2017-05-21T08:16:59.076Z,68
2017-05-21T08:18:09.342Z,60
2017-05-21T08:19:19.306Z,60
2017-05-21T08:20:29.580Z,60
2017-05-21T08:21:39.218Z,56
2017-05-21T08:22:48.851Z,56
2017-05-21T08:23:59.120Z,52
2017-05-21T08:25:09.444Z,52
2017-05-21T08:26:18.763Z,52
2017-05-21T08:27:28.080Z,48
2017-05-21T08:28:38.028Z,48
2017-05-21T08:29:47.989Z,44
2017-05-21T08:30:57.943Z,44
2017-05-21T08:32:07.902Z,44
2017-05-21T08:33:17.852Z,44
2017-05-21T08:34:27.828Z,44
2017-05-21T08:35:37.473Z,40
2017-05-21T08:36:47.115Z,36
2017-05-21T08:37:57.083Z,36
2017-05-21T08:39:07.354Z,36
2017-05-21T08:40:17.308Z,32
2017-05-21T08:41:27.261Z,32
2017-05-21T08:42:36.900Z,48
2017-05-21T08:43:47.173Z,44
2017-05-21T08:44:57.126Z,44
2017-05-21T08:46:07.086Z,40
2017-05-21T08:47:17.035Z,36
2017-05-21T08:48:26.987Z,28
2017-05-21T08:49:36.941Z,32
2017-05-21T08:50:47.212Z,32
2017-05-21T08:51:56.849Z,32
2017-05-21T08:53:06.486Z,36
2017-05-21T08:54:16.439Z,44
2017-05-21T08:55:26.086Z,20
2017-05-21T08:56:36.346Z,44
2017-05-21T08:57:45.987Z,44
2017-05-21T08:58:55.943Z,44
2017-05-21T09:00:05.267Z,44
2017-05-21T09:01:14.939Z,40
2017-05-21T09:02:25.201Z,44
2017-05-21T09:03:34.525Z,44
2017-05-21T09:04:44.167Z,44
2017-05-21T09:05:54.116Z,44
2017-05-21T09:07:04.062Z,40
2017-05-21T09:08:14.332Z,44
2017-05-21T09:09:24.607Z,40
2017-05-21T09:10:33.947Z,36
2017-05-21T09:11:44.209Z,36
2017-05-21T09:12:54.160Z,32
2017-05-21T09:14:03.802Z,32
2017-05-21T09:15:14.072Z,36
2017-05-21T09:16:24.335Z,36
2017-05-21T09:17:33.969Z,36
2017-05-21T09:18:43.300Z,36
2017-05-21T09:19:53.602Z,36
2017-05-21T09:21:03.239Z,36
2017-05-21T09:22:13.189Z,36
2017-05-21T09:23:22.829Z,32
2017-05-21T09:24:32.776Z,28
2017-05-21T09:25:42.413Z,32
2017-05-21T09:26:51.425Z,16
2017-05-21T09:28:01.696Z,20
2017-05-21T09:29:11.961Z,20
2017-05-21T09:30:21.919Z,20
2017-05-21T09:31:31.559Z,16
2017-05-21T09:32:41.516Z,16
2017-05-21T09:33:51.466Z,20
2017-05-21T09:35:01.420Z,16
2017-05-21T09:36:11.369Z,16
2017-05-21T09:37:21.325Z,20
2017-05-21T09:38:30.650Z,16
2017-05-21T09:39:39.666Z,20
2017-05-21T09:40:48.986Z,16
2017-05-21T09:41:58.947Z,16
2017-05-21T09:43:08.897Z,16
2017-05-21T09:44:18.225Z,20
2017-05-21T09:45:28.506Z,16
2017-05-21T09:46:38.141Z,20
2017-05-21T09:47:47.462Z,20
2017-05-21T09:48:57.098Z,16
2017-05-21T09:50:07.357Z,20
2017-05-21T09:51:16.987Z,16
2017-05-21T09:52:27.266Z,20
2017-05-21T09:53:36.900Z,16
2017-05-21T09:54:46.544Z,20
2017-05-21T09:55:56.500Z,16
2017-05-21T09:57:06.141Z,20
2017-05-21T09:58:16.096Z,20
2017-05-21T09:59:25.735Z,16
2017-05-21T10:00:36.021Z,20
2017-05-21T10:01:45.975Z,20
2017-05-21T10:02:55.921Z,20
2017-05-21T10:04:05.555Z,16
2017-05-21T10:05:15.509Z,16
2017-05-21T10:06:25.147Z,20
2017-05-21T10:07:34.473Z,16
2017-05-21T10:08:44.423Z,16
2017-05-21T10:09:53.749Z,8
2017-05-21T10:11:03.703Z,12
2017-05-21T10:12:13.338Z,16
2017-05-21T10:13:23.613Z,20
2017-05-21T10:14:33.881Z,16
2017-05-21T10:15:43.521Z,20
2017-05-21T10:16:52.846Z,16
2017-05-21T10:18:02.493Z,20
2017-05-21T10:19:12.459Z,16
2017-05-21T10:20:22.097Z,16
2017-05-21T10:21:32.363Z,16
2017-05-21T10:22:41.996Z,20
2017-05-21T10:23:51.964Z,20
2017-05-21T10:25:01.607Z,16
2017-05-21T10:26:11.564Z,16
2017-05-21T10:27:21.201Z,20
2017-05-21T10:28:31.165Z,16
2017-05-21T10:29:41.434Z,16
2017-05-21T10:30:50.755Z,20
2017-05-21T10:32:00.391Z,16
2017-05-21T10:33:10.337Z,16
2017-05-21T10:34:20.293Z,16
2017-05-21T10:35:30.263Z,20
2017-05-21T10:36:40.220Z,24
2017-05-21T10:37:50.492Z,24
2017-05-21T10:39:00.451Z,24
2017-05-21T10:40:09.777Z,24
2017-05-21T10:41:19.730Z,24
2017-05-21T10:42:29.366Z,24
2017-05-21T10:43:39.323Z,12
2017-05-21T10:44:49.278Z,16
2017-05-21T10:45:59.232Z,12
2017-05-21T10:47:09.181Z,12
2017-05-21T10:48:19.444Z,16
2017-05-21T10:49:29.398Z,16
2017-05-21T10:50:39.344Z,12
2017-05-21T10:51:49.294Z,12
2017-05-21T10:52:59.248Z,16
2017-05-21T10:54:09.201Z,16
2017-05-21T10:55:19.156Z,16
2017-05-21T10:56:29.421Z,16
2017-05-21T10:57:39.379Z,12
2017-05-21T10:58:49.332Z,12
2017-05-21T10:59:58.971Z,16
2017-05-21T11:01:09.242Z,16
2017-05-21T11:02:18.875Z,12
2017-05-21T11:03:28.199Z,12
2017-05-21T11:04:38.153Z,8
2017-05-21T11:05:48.417Z,8
2017-05-21T11:06:58.051Z,8
2017-05-21T11:08:07.998Z,12
2017-05-21T11:09:18.274Z,12
2017-05-21T11:10:28.544Z,12
2017-05-21T11:11:38.492Z,12
2017-05-21T11:12:48.753Z,12
2017-05-21T11:13:58.393Z,12
2017-05-21T11:15:08.662Z,16
2017-05-21T11:16:18.614Z,16
2017-05-21T11:17:28.560Z,12
2017-05-21T11:18:38.825Z,12
2017-05-21T11:19:48.462Z,12
2017-05-21T11:20:57.465Z,12
2017-05-21T11:22:07.731Z,12
2017-05-21T11:23:18.005Z,12
2017-05-21T11:24:28.270Z,8
2017-05-21T11:25:38.225Z,8
2017-05-21T11:26:47.864Z,8
2017-05-21T11:27:57.503Z,4
2017-05-21T11:29:06.832Z,8
2017-05-21T11:30:16.789Z,8
2017-05-21T11:31:26.429Z,8
2017-05-21T11:32:36.702Z,8
2017-05-21T11:33:46.967Z,8
2017-05-21T11:34:56.298Z,12
2017-05-21T11:36:06.255Z,12
2017-05-21T11:37:16.522Z,12
2017-05-21T11:38:26.475Z,12
2017-05-21T11:39:36.747Z,12
2017-05-21T11:40:46.701Z,12
2017-05-21T11:41:56.334Z,12
2017-05-21T11:43:06.284Z,12
2017-05-21T11:44:16.555Z,12
2017-05-21T11:45:26.827Z,16
2017-05-21T11:46:36.783Z,12
2017-05-21T11:47:46.751Z,12
2017-05-21T11:48:56.703Z,12
2017-05-21T11:50:06.980Z,12
2017-05-21T11:51:16.931Z,12
2017-05-21T11:52:27.202Z,8
2017-05-21T11:53:37.155Z,16
2017-05-21T11:54:47.105Z,8
2017-05-21T11:55:56.745Z,8
2017-05-21T11:57:07.006Z,8
2017-05-21T11:58:16.644Z,8
2017-05-21T11:59:25.972Z,12
2017-05-21T12:00:35.609Z,12
2017-05-21T12:01:45.875Z,16
2017-05-21T12:02:56.144Z,12
2017-05-21T12:04:05.798Z,12
2017-05-21T12:05:15.756Z,12
2017-05-21T12:06:26.070Z,12
2017-05-21T12:07:36.344Z,16
2017-05-21T12:08:46.004Z,16
2017-05-21T12:09:56.273Z,16
2017-05-21T12:11:06.227Z,12
2017-05-21T12:12:16.498Z,16
2017-05-21T12:13:26.137Z,12
2017-05-21T12:14:36.408Z,8
2017-05-21T12:15:46.074Z,8
2017-05-21T12:16:55.702Z,12
2017-05-21T12:18:05.345Z,8
2017-05-21T12:19:15.629Z,8
2017-05-21T12:20:25.578Z,8
2017-05-21T12:21:35.214Z,8
2017-05-21T12:22:44.865Z,12
2017-05-21T12:23:54.503Z,8
2017-05-21T12:25:03.515Z,8
2017-05-21T12:26:13.153Z,8
2017-05-21T12:27:23.419Z,12
2017-05-21T12:28:33.375Z,8
2017-05-21T12:29:43.017Z,8
2017-05-21T12:30:52.995Z,8
2017-05-21T12:32:03.280Z,8
2017-05-21T12:33:12.921Z,8
2017-05-21T12:34:22.905Z,8
2017-05-21T12:35:32.546Z,8
2017-05-21T12:36:42.494Z,8
2017-05-21T12:37:52.139Z,16
2017-05-21T12:39:02.409Z,16
2017-05-21T12:40:12.364Z,12
2017-05-21T12:41:22.311Z,16
2017-05-21T12:42:32.258Z,20
2017-05-21T12:43:42.211Z,16
2017-05-21T12:44:52.477Z,20
2017-05-21T12:46:02.748Z,16
2017-05-21T12:47:13.014Z,4
2017-05-21T12:48:23.290Z,12
2017-05-21T12:49:32.943Z,8
2017-05-21T12:50:42.910Z,8
2017-05-21T12:51:52.871Z,8
2017-05-21T12:53:02.194Z,8
2017-05-21T12:54:12.461Z,16
2017-05-21T12:55:21.791Z,20
2017-05-21T12:56:31.118Z,20
2017-05-21T12:57:41.071Z,16
2017-05-21T12:58:51.016Z,12
2017-05-21T13:00:00.970Z,16
2017-05-21T13:01:11.244Z,20
2017-05-21T13:02:20.876Z,8
2017-05-21T13:03:30.832Z,8
2017-05-21T13:04:41.103Z,8
2017-05-21T13:05:51.053Z,8
2017-05-21T13:07:01.322Z,8
2017-05-21T13:08:10.643Z,16
2017-05-21T13:09:20.597Z,20
2017-05-21T13:10:30.241Z,20
2017-05-21T13:11:40.198Z,20
2017-05-21T13:12:49.833Z,16
2017-05-21T13:13:59.475Z,8
2017-05-21T13:15:08.796Z,16
2017-05-21T13:16:19.072Z,8
2017-05-21T13:17:29.342Z,4
2017-05-21T13:18:39.613Z,8
2017-05-21T13:19:49.879Z,12
2017-05-21T13:20:59.204Z,16
2017-05-21T13:22:08.903Z,12
2017-05-21T13:23:18.848Z,20
2017-05-21T13:24:27.853Z,16
2017-05-21T13:25:37.490Z,16
2017-05-21T13:26:46.495Z,8
2017-05-21T13:27:55.507Z,8
2017-05-21T13:29:05.775Z,12
2017-05-21T13:30:15.737Z,16
2017-05-21T13:31:25.689Z,20
2017-05-21T13:32:35.659Z,20
2017-05-21T13:33:45.624Z,24
2017-05-21T13:34:55.267Z,24
2017-05-21T13:36:04.910Z,24
2017-05-21T13:37:14.555Z,24
2017-05-21T13:38:24.517Z,24
2017-05-21T13:39:34.784Z,20
2017-05-21T13:40:44.420Z,24
2017-05-21T13:41:54.688Z,24
2017-05-21T13:43:04.319Z,24
2017-05-21T13:44:14.584Z,24
2017-05-21T13:45:23.903Z,20
2017-05-21T13:46:33.857Z,24
2017-05-21T13:47:43.922Z,24
2017-05-21T13:48:53.873Z,24
2017-05-21T13:50:03.828Z,24
2017-05-21T13:51:13.465Z,24
2017-05-21T13:52:23.748Z,28
2017-05-21T13:53:34.021Z,12
2017-05-21T13:54:43.343Z,8
2017-05-21T13:55:52.665Z,8
2017-05-21T13:57:02.612Z,8
2017-05-21T13:58:12.255Z,8
2017-05-21T13:59:21.903Z,8
2017-05-21T14:00:31.583Z,8
2017-05-21T14:01:41.229Z,8
2017-05-21T14:02:51.494Z,12
2017-05-21T14:04:01.141Z,12
2017-05-21T14:05:10.784Z,12
2017-05-21T14:06:20.118Z,8
2017-05-21T14:07:30.071Z,8
2017-05-21T14:08:40.026Z,8
2017-05-21T14:09:49.673Z,8
2017-05-21T14:10:59.941Z,8
2017-05-21T14:12:09.895Z,12
2017-05-21T14:13:19.852Z,20
2017-05-21T14:14:30.126Z,12
2017-05-21T14:15:39.457Z,8
2017-05-21T14:16:49.094Z,8
2017-05-21T14:17:59.457Z,24
2017-05-21T14:19:09.425Z,24
2017-05-21T14:20:19.059Z,24
2017-05-21T14:21:29.016Z,24
2017-05-21T14:22:38.971Z,8
2017-05-21T14:23:49.243Z,4
2017-05-21T14:24:59.506Z,8
2017-05-21T14:26:09.152Z,12
2017-05-21T14:27:19.102Z,20
2017-05-21T14:28:29.373Z,8
2017-05-21T14:29:39.644Z,24
2017-05-21T14:30:49.285Z,28
2017-05-21T14:31:58.628Z,24
2017-05-21T14:33:08.893Z,20
2017-05-21T14:34:18.531Z,20
2017-05-21T14:35:27.541Z,12
2017-05-21T14:36:36.893Z,24
2017-05-21T14:37:46.303Z,20
2017-05-21T14:38:56.578Z,24
2017-05-21T14:40:06.216Z,16
2017-05-21T14:41:16.483Z,24
2017-05-21T14:42:26.440Z,24
2017-05-21T14:43:35.755Z,24
2017-05-21T14:44:45.073Z,24
2017-05-21T14:45:54.077Z,24
2017-05-21T14:47:03.086Z,24
2017-05-21T14:48:11.778Z,24
2017-05-21T14:49:21.736Z,24
2017-05-21T14:50:31.695Z,24
2017-05-21T14:51:41.025Z,24
2017-05-21T14:52:50.675Z,24
2017-05-21T14:54:00.641Z,28
2017-05-21T14:55:10.589Z,24
2017-05-21T14:56:20.227Z,20
2017-05-21T14:57:30.505Z,24
2017-05-21T14:58:40.783Z,24
2017-05-21T14:59:50.108Z,24
2017-05-21T15:00:59.746Z,24
2017-05-21T15:02:10.011Z,24
2017-05-21T15:03:19.656Z,24
2017-05-21T15:04:29.608Z,28
2017-05-21T15:05:39.876Z,28
2017-05-21T15:06:49.515Z,28
2017-05-21T15:07:59.220Z,24
2017-05-21T15:09:08.861Z,24
2017-05-21T15:10:19.121Z,24
2017-05-21T15:11:29.074Z,24
2017-05-21T15:12:38.787Z,24
2017-05-21T15:13:49.058Z,24
2017-05-21T15:14:58.708Z,24
2017-05-21T15:16:08.662Z,24
2017-05-21T15:17:18.298Z,24
2017-05-21T15:18:28.255Z,24
2017-05-21T15:19:38.217Z,24
2017-05-21T15:20:47.856Z,24
2017-05-21T15:21:57.495Z,20
2017-05-21T15:23:07.459Z,4
2017-05-21T15:24:17.423Z,4
2017-05-21T15:25:27.376Z,24
2017-05-21T15:26:37.639Z,24
2017-05-21T15:27:47.270Z,24
2017-05-21T15:28:57.227Z,20
2017-05-21T15:30:07.179Z,24
2017-05-21T15:31:17.133Z,20
2017-05-21T15:32:27.400Z,16
2017-05-21T15:33:37.354Z,20
2017-05-21T15:34:47.010Z,20
2017-05-21T15:35:56.336Z,24
2017-05-21T15:37:06.289Z,16
2017-05-21T15:38:16.257Z,20
2017-05-21T15:39:26.537Z,24
2017-05-21T15:40:36.803Z,24
2017-05-21T15:41:46.441Z,24
2017-05-21T15:42:56.712Z,24
2017-05-21T15:44:06.095Z,24
2017-05-21T15:45:15.733Z,24
2017-05-21T15:46:25.368Z,20
2017-05-21T15:47:35.319Z,20
2017-05-21T15:48:45.275Z,24
2017-05-21T15:49:54.912Z,24
2017-05-21T15:51:04.548Z,20
2017-05-21T15:52:14.186Z,20
2017-05-21T15:53:24.149Z,24
2017-05-21T15:54:33.783Z,16
2017-05-21T15:55:43.418Z,20
2017-05-21T15:56:53.371Z,20
2017-05-21T15:58:03.319Z,20
2017-05-21T15:59:12.963Z,16
2017-05-21T16:00:23.233Z,20
2017-05-21T16:01:32.866Z,16
2017-05-21T16:02:42.508Z,20
2017-05-21T16:03:52.144Z,20
2017-05-21T16:05:02.105Z,20
2017-05-21T16:06:11.745Z,16
2017-05-21T16:07:22.022Z,20
2017-05-21T16:08:32.298Z,20
2017-05-21T16:09:41.941Z,20
2017-05-21T16:10:51.893Z,16
2017-05-21T16:12:01.524Z,16
2017-05-21T16:13:11.476Z,16
2017-05-21T16:14:21.429Z,16
2017-05-21T16:15:31.081Z,16
2017-05-21T16:16:40.405Z,16
2017-05-21T16:17:49.412Z,16
2017-05-21T16:18:59.382Z,16
2017-05-21T16:20:09.342Z,16
2017-05-21T16:21:18.982Z,16
2017-05-21T16:22:28.929Z,16
2017-05-21T16:23:38.884Z,12
2017-05-21T16:24:49.152Z,12
2017-05-21T16:25:58.789Z,16
2017-05-21T16:27:08.769Z,16
2017-05-21T16:28:18.418Z,12
2017-05-21T16:29:28.695Z,12
2017-05-21T16:30:38.959Z,8
2017-05-21T16:31:48.913Z,4
2017-05-21T16:32:58.550Z,4
2017-05-21T16:34:08.189Z,12
2017-05-21T16:35:18.453Z,12
2017-05-21T16:36:28.722Z,16
2017-05-21T16:37:38.988Z,16
2017-05-21T16:38:48.942Z,12
2017-05-21T16:39:58.583Z,12
2017-05-21T16:41:08.544Z,16
2017-05-21T16:42:18.810Z,12
2017-05-21T16:43:28.774Z,16
2017-05-21T16:44:38.416Z,16
2017-05-21T16:45:48.362Z,12
2017-05-21T16:46:58.636Z,12
2017-05-21T16:48:08.591Z,12
2017-05-21T16:49:18.561Z,12